createdAt,value
2023-10-10T00:00:05.894Z,101977.69
2023-10-10T00:02:38.976Z,101960.66
2023-10-10T00:05:06.288Z,101953.25
2023-10-10T00:07:36.073Z,101942.97
2023-10-10T00:10:02.928Z,101940.66
2023-10-10T00:12:30.696Z,101934.25
2023-10-10T00:15:00.900Z,101923.19
2023-10-10T00:17:36.478Z,101921.34
2023-10-10T00:20:22.575Z,101916.78
2023-10-10T00:22:49.526Z,101919.91
2023-10-10T00:25:18.350Z,101919.66
2023-10-10T00:27:45.141Z,101909.66
2023-10-10T00:30:14.693Z,101911.81
2023-10-10T00:32:47.436Z,101916.97
2023-10-10T00:35:14.234Z,101914.81
2023-10-10T00:37:41.604Z,101919.91
2023-10-10T00:40:09.531Z,101911.38
2023-10-10T00:42:42.509Z,101901.88
2023-10-10T00:45:16.523Z,101893.22
2023-10-10T00:47:45.932Z,101876.66
2023-10-10T00:50:20.182Z,101867.47
2023-10-10T00:52:51.937Z,101875.94
2023-10-10T00:55:37.731Z,101874.09
2023-10-10T00:58:05.499Z,101881.16
2023-10-10T01:00:32.672Z,101883.31
2023-10-10T01:03:08.814Z,101887.44
2023-10-10T01:05:41.446Z,101873.97
2023-10-10T01:08:08.558Z,101878.75
2023-10-10T01:10:44.704Z,101885.69
2023-10-10T01:13:11.799Z,101896.03
2023-10-10T01:15:38.821Z,101897.28
2023-10-10T01:18:14.474Z,101893.34
2023-10-10T01:20:48.107Z,101900.31
2023-10-10T01:23:19.970Z,101897.03
2023-10-10T01:25:48.544Z,101887.25
2023-10-10T01:28:24.959Z,101893.81
2023-10-10T01:31:06.329Z,101883.31
2023-10-10T01:33:36.500Z,101891.13
2023-10-10T01:36:04.470Z,101896.50
2023-10-10T01:38:43.032Z,101890.97
2023-10-10T01:41:32.618Z,101890.13
2023-10-10T01:44:13.876Z,101891.13
2023-10-10T01:46:44.281Z,101886.88
2023-10-10T01:49:26.429Z,101871.84
2023-10-10T01:52:02.168Z,101868.91
2023-10-10T01:54:42.164Z,101864.25
2023-10-10T01:57:11.189Z,101866.22
2023-10-10T01:59:39.836Z,101869.63
2023-10-10T02:02:11.275Z,101861.00
2023-10-10T02:04:38.428Z,101848.72
2023-10-10T02:07:15.455Z,101848.84
2023-10-10T02:09:44.755Z,101851.81
2023-10-10T02:12:17.820Z,101842.91
2023-10-10T02:14:44.856Z,101836.56
2023-10-10T02:17:24.190Z,101825.66
2023-10-10T02:20:09.622Z,101813.91
2023-10-10T02:22:56.562Z,101816.31
2023-10-10T02:25:29.235Z,101818.34
2023-10-10T02:27:57.209Z,101804.78
2023-10-10T02:30:36.930Z,101783.50
2023-10-10T02:33:13.551Z,101780.41
2023-10-10T02:35:55.720Z,101766.81
2023-10-10T02:38:43.716Z,101755.34
2023-10-10T02:41:23.959Z,101756.91
2023-10-10T02:43:58.275Z,101746.13
2023-10-10T02:46:41.137Z,101738.22
2023-10-10T02:49:14.581Z,101733.81
2023-10-10T02:51:44.212Z,101747.00
2023-10-10T02:54:23.071Z,101742.88
2023-10-10T02:56:50.042Z,101741.75
2023-10-10T02:59:23.093Z,101738.66
2023-10-10T03:02:00.979Z,101725.59
2023-10-10T03:04:46.954Z,101725.47
2023-10-10T03:07:20.823Z,101720.53
2023-10-10T03:10:07.219Z,102876.63
2023-10-10T03:12:38.684Z,102870.03
2023-10-10T03:15:15.655Z,102853.88
2023-10-10T03:18:05.225Z,102850.72
2023-10-10T03:20:33.483Z,102821.13
2023-10-10T03:23:06.756Z,102811.84
2023-10-10T03:25:47.986Z,102819.66
2023-10-10T03:28:22.602Z,102825.03
2023-10-10T03:31:12.081Z,102814.81
2023-10-10T03:33:45.348Z,102832.44
2023-10-10T03:36:19.409Z,102825.31
2023-10-10T03:38:49.206Z,102826.69
2023-10-10T03:41:25.282Z,102832.66
2023-10-10T03:44:23.197Z,102827.06
2023-10-10T03:47:11.790Z,102819.47
2023-10-10T03:49:57.200Z,102799.66
2023-10-10T03:52:42.702Z,102780.81
2023-10-10T03:55:28.173Z,102763.66
2023-10-10T03:58:13.397Z,102744.69
2023-10-10T04:00:58.674Z,102726.78
2023-10-10T04:03:44.256Z,102732.31
2023-10-10T04:06:29.596Z,102727.69
2023-10-10T04:09:15.281Z,102726.47
2023-10-10T04:12:00.931Z,102697.03
2023-10-10T04:14:46.269Z,102694.59
2023-10-10T04:17:31.758Z,102692.28
2023-10-10T04:20:21.731Z,102688.13
2023-10-10T04:23:06.793Z,102680.03
2023-10-10T04:25:52.256Z,102662.91
2023-10-10T04:28:45.318Z,102670.47
2023-10-10T04:31:30.360Z,102675.88
2023-10-10T04:34:15.837Z,102670.47
2023-10-10T04:37:01.095Z,102680.41
2023-10-10T04:39:46.168Z,102689.69
2023-10-10T04:42:31.149Z,102689.59
2023-10-10T04:45:16.565Z,102691.41
2023-10-10T04:48:02.000Z,102686.63
2023-10-10T04:50:47.494Z,102683.69
2023-10-10T04:53:32.865Z,102682.47
2023-10-10T04:56:18.373Z,102708.19
2023-10-10T04:59:03.675Z,102698.53
2023-10-10T05:01:49.333Z,102702.19
2023-10-10T05:04:35.061Z,102693.88
2023-10-10T05:07:20.396Z,102693.88
2023-10-10T05:10:05.604Z,102702.69
2023-10-10T05:12:50.698Z,102698.84
2023-10-10T05:15:36.013Z,102702.91
2023-10-10T05:18:21.290Z,102701.69
2023-10-10T05:21:06.508Z,102689.91
2023-10-10T05:23:35.948Z,102684.53
2023-10-10T05:26:03.818Z,102675.44
2023-10-10T05:28:34.136Z,102668.00
2023-10-10T05:31:04.047Z,102672.53
2023-10-10T05:33:31.825Z,102671.78
2023-10-10T05:35:59.598Z,102678.13
2023-10-10T05:38:26.790Z,102698.56
2023-10-10T05:40:53.613Z,102710.69
2023-10-10T05:43:21.941Z,102715.81
2023-10-10T05:45:49.977Z,102740.78
2023-10-10T05:48:16.652Z,102742.72
2023-10-10T05:50:43.825Z,102752.38
2023-10-10T05:53:11.092Z,102747.28
2023-10-10T05:55:38.697Z,102752.13
2023-10-10T05:58:06.264Z,102745.31
2023-10-10T06:00:40.874Z,102736.69
2023-10-10T06:03:07.769Z,102751.44
2023-10-10T06:05:35.003Z,102736.72
2023-10-10T06:08:02.872Z,102726.31
2023-10-10T06:10:35.964Z,102727.19
2023-10-10T06:13:05.420Z,102741.38
2023-10-10T06:15:34.890Z,102738.56
2023-10-10T06:18:19.631Z,102735.88
2023-10-10T06:21:06.723Z,102763.09
2023-10-10T06:23:35.343Z,102763.81
2023-10-10T06:26:03.328Z,102752.19
2023-10-10T06:28:30.704Z,102742.66
2023-10-10T06:31:01.067Z,102739.22
2023-10-10T06:33:31.121Z,102718.78
2023-10-10T06:36:24.987Z,102726.75
2023-10-10T06:39:04.574Z,102734.94
2023-10-10T06:41:40.103Z,102723.44
2023-10-10T06:44:14.965Z,102720.00
2023-10-10T06:46:43.544Z,102701.41
2023-10-10T06:49:13.413Z,102697.97
2023-10-10T06:51:41.212Z,102697.97
2023-10-10T06:54:20.953Z,102694.28
2023-10-10T06:57:03.150Z,102702.47
2023-10-10T06:59:30.230Z,102703.34
2023-10-10T07:02:15.503Z,102701.63
2023-10-10T07:04:42.257Z,102697.09
2023-10-10T07:07:10.320Z,102689.16
2023-10-10T07:09:43.643Z,102686.31
2023-10-10T07:12:15.168Z,102671.91
2023-10-10T07:14:44.900Z,102664.69
2023-10-10T07:17:15.255Z,102652.69
2023-10-10T07:20:00.894Z,102647.94
2023-10-10T07:22:28.025Z,102662.72
2023-10-10T07:25:08.220Z,102642.91
2023-10-10T07:27:36.935Z,102618.16
2023-10-10T07:30:10.329Z,102613.78
2023-10-10T07:32:40.333Z,102609.00
2023-10-10T07:35:07.235Z,102558.81
2023-10-10T07:37:33.999Z,102511.44
2023-10-10T07:40:02.339Z,102506.56
2023-10-10T07:42:30.418Z,102486.97
2023-10-10T07:44:59.895Z,102462.22
2023-10-10T07:47:27.575Z,102452.53
2023-10-10T07:49:55.404Z,102442.72
2023-10-10T07:52:22.386Z,102428.03
2023-10-10T07:54:53.068Z,102399.38
2023-10-10T07:57:23.501Z,102393.50
2023-10-10T07:59:51.194Z,102375.94
2023-10-10T08:02:26.214Z,102370.22
2023-10-10T08:04:54.112Z,102379.88
2023-10-10T08:07:21.165Z,102402.03
2023-10-10T08:09:49.318Z,102416.09
2023-10-10T08:12:16.823Z,102411.06
2023-10-10T08:14:43.820Z,102432.28
2023-10-10T08:17:19.915Z,102439.00
2023-10-10T08:19:52.813Z,102446.38
2023-10-10T08:22:20.890Z,102474.88
2023-10-10T08:24:47.497Z,102494.34
2023-10-10T08:27:14.152Z,102517.38
2023-10-10T08:29:41.497Z,102546.00
2023-10-10T08:32:10.132Z,102589.50
2023-10-10T08:34:43.899Z,102628.16
2023-10-10T08:37:11.128Z,102647.03
2023-10-10T08:39:38.399Z,102645.22
2023-10-10T08:42:12.487Z,102642.25
2023-10-10T08:44:40.585Z,102641.50
2023-10-10T08:47:07.871Z,102637.91
2023-10-10T08:49:35.003Z,102646.31
2023-10-10T08:52:04.334Z,102660.09
2023-10-10T08:54:31.473Z,102640.53
2023-10-10T08:57:05.729Z,102623.22
2023-10-10T08:59:33.372Z,102550.88
2023-10-10T09:02:13.400Z,102474.94
2023-10-10T09:04:40.251Z,102451.56
2023-10-10T09:07:09.928Z,102411.31
2023-10-10T09:09:41.454Z,102387.03
2023-10-10T09:12:21.422Z,102344.09
2023-10-10T09:14:51.886Z,102322.97
2023-10-10T09:17:34.605Z,102280.34
2023-10-10T09:20:19.414Z,102244.56
2023-10-10T09:22:52.880Z,102229.66
2023-10-10T09:25:49.691Z,102199.84
2023-10-10T09:28:19.374Z,102174.28
2023-10-10T09:31:00.339Z,102145.28
2023-10-10T09:33:31.543Z,102124.72
2023-10-10T09:36:17.125Z,102124.31
2023-10-10T09:38:47.721Z,102141.31
2023-10-10T09:41:27.463Z,102126.28
2023-10-10T09:44:24.670Z,102151.13
2023-10-10T09:47:00.374Z,102168.28
2023-10-10T09:49:45.783Z,102154.81
2023-10-10T09:52:31.245Z,102181.69
2023-10-10T09:55:14.744Z,102153.84
2023-10-10T09:57:44.201Z,102125.97
2023-10-10T10:00:27.366Z,102129.28
2023-10-10T10:02:59.172Z,102123.13
2023-10-10T10:05:29.879Z,102131.38
2023-10-10T10:08:07.887Z,102133.38
2023-10-10T10:10:47.773Z,102130.09
2023-10-10T10:13:27.626Z,102189.31
2023-10-10T10:16:16.691Z,102204.78
2023-10-10T10:18:47.964Z,102180.03
2023-10-10T10:21:21.848Z,102125.34
2023-10-10T10:23:48.880Z,102095.50
2023-10-10T10:26:31.134Z,102045.75
2023-10-10T10:28:58.347Z,101991.31
2023-10-10T10:31:29.677Z,101992.78
2023-10-10T10:34:06.836Z,101978.63
2023-10-10T10:36:42.712Z,102001.94
2023-10-10T10:39:22.643Z,101970.47
2023-10-10T10:41:55.398Z,101970.00
2023-10-10T10:44:29.193Z,101926.75
2023-10-10T10:46:58.139Z,101925.13
2023-10-10T10:49:29.586Z,101914.34
2023-10-10T10:52:19.399Z,101892.53
2023-10-10T10:54:51.338Z,101902.47
2023-10-10T10:57:39.567Z,101908.44
2023-10-10T11:00:35.607Z,101909.09
2023-10-10T11:03:11.204Z,101957.44
2023-10-10T11:05:39.671Z,101950.94
2023-10-10T11:08:12.586Z,101965.66
2023-10-10T11:10:40.055Z,101959.41
2023-10-10T11:13:09.178Z,101982.13
2023-10-10T11:15:39.372Z,101951.34
2023-10-10T11:18:09.404Z,101986.03
2023-10-10T11:21:04.627Z,101976.31
2023-10-10T11:23:42.430Z,101947.72
2023-10-10T11:26:09.461Z,101902.09
2023-10-10T11:28:46.562Z,101887.63
2023-10-10T11:31:13.435Z,101887.50
2023-10-10T11:33:57.571Z,101883.31
2023-10-10T11:36:30.188Z,101906.50
2023-10-10T11:39:17.556Z,101886.72
2023-10-10T11:41:46.694Z,101882.84
2023-10-10T11:44:19.021Z,101881.53
2023-10-10T11:46:50.791Z,101869.44
2023-10-10T11:49:17.779Z,101835.66
2023-10-10T11:51:44.448Z,101817.97
2023-10-10T11:54:11.136Z,101790.97
2023-10-10T11:56:37.818Z,101784.84
2023-10-10T11:59:15.576Z,101785.66
2023-10-10T12:01:52.732Z,101793.31
2023-10-10T12:04:31.984Z,101789.22
2023-10-10T12:07:02.702Z,101789.97
2023-10-10T12:09:31.749Z,101789.75
2023-10-10T12:12:04.315Z,101795.50
2023-10-10T12:14:32.273Z,101809.75
2023-10-10T12:16:59.945Z,101824.03
2023-10-10T12:19:37.418Z,101811.44
2023-10-10T12:22:12.194Z,101821.44
2023-10-10T12:24:40.652Z,101820.47
2023-10-10T12:27:10.571Z,101820.34
2023-10-10T12:29:41.333Z,101824.66
2023-10-10T12:32:16.839Z,101806.34
2023-10-10T12:34:44.566Z,101800.00
2023-10-10T12:37:11.133Z,101787.22
2023-10-10T12:39:39.200Z,101774.69
2023-10-10T12:42:05.975Z,101774.94
2023-10-10T12:44:32.718Z,101764.31
2023-10-10T12:47:00.418Z,101755.41
2023-10-10T12:49:30.348Z,101718.88
2023-10-10T12:51:57.699Z,101709.00
2023-10-10T12:54:28.685Z,101702.09
2023-10-10T12:57:04.079Z,101677.53
2023-10-10T12:59:34.689Z,101632.34
2023-10-10T13:02:04.634Z,101605.28
2023-10-10T13:04:33.633Z,101568.19
2023-10-10T13:07:06.548Z,101561.13
2023-10-10T13:09:33.838Z,101574.31
2023-10-10T13:12:04.260Z,101578.25
2023-10-10T13:14:34.009Z,101579.28
2023-10-10T13:17:21.716Z,101564.19
2023-10-10T13:19:50.082Z,101548.78
2023-10-10T13:22:22.144Z,101548.25
2023-10-10T13:24:52.640Z,101528.97
2023-10-10T13:27:22.011Z,101506.25
2023-10-10T13:29:48.896Z,101506.91
2023-10-10T13:32:15.618Z,101482.81
2023-10-10T13:34:42.176Z,101465.22
2023-10-10T13:37:09.341Z,101434.41
2023-10-10T13:39:44.951Z,101405.03
2023-10-10T13:42:15.820Z,101387.28
2023-10-10T13:44:43.754Z,101384.75
2023-10-10T13:47:11.667Z,101387.50
2023-10-10T13:49:45.616Z,101371.25
2023-10-10T13:52:13.128Z,101374.63
2023-10-10T13:54:39.815Z,101380.28
2023-10-10T13:57:08.104Z,101402.16
2023-10-10T13:59:34.867Z,101384.25
2023-10-10T14:02:05.311Z,101382.91
2023-10-10T14:04:47.029Z,101371.38
2023-10-10T14:07:15.658Z,101339.34
2023-10-10T14:09:56.076Z,101317.03
2023-10-10T14:12:33.616Z,101316.09
2023-10-10T14:15:01.162Z,101299.16
2023-10-10T14:17:28.126Z,101296.25
2023-10-10T14:19:54.945Z,101277.00
2023-10-10T14:22:27.759Z,101258.50
2023-10-10T14:24:58.957Z,101247.38
2023-10-10T14:27:27.024Z,101211.84
2023-10-10T14:29:54.970Z,101208.00
2023-10-10T14:32:37.631Z,101206.91
2023-10-10T14:35:05.919Z,101184.44
2023-10-10T14:37:45.210Z,101183.03
2023-10-10T14:40:19.965Z,101169.97
2023-10-10T14:42:46.607Z,101161.25
2023-10-10T14:45:14.291Z,101152.38
2023-10-10T14:47:44.969Z,101164.25
2023-10-10T14:50:14.107Z,101168.06
2023-10-10T14:52:50.873Z,101161.31
2023-10-10T14:55:26.781Z,101188.16
2023-10-10T14:57:56.678Z,101188.34
2023-10-10T15:00:29.438Z,101181.03
2023-10-10T15:02:57.510Z,101190.81
2023-10-10T15:05:27.768Z,101204.59
2023-10-10T15:07:55.664Z,101209.66
2023-10-10T15:10:27.199Z,101222.50
2023-10-10T15:12:54.688Z,101241.78
2023-10-10T15:15:24.038Z,101264.91
2023-10-10T15:17:51.474Z,101263.59
2023-10-10T15:20:18.227Z,101262.50
2023-10-10T15:22:44.866Z,101252.59
2023-10-10T15:25:12.142Z,101236.84
2023-10-10T15:27:42.277Z,101217.53
2023-10-10T15:30:10.027Z,101233.69
2023-10-10T15:32:47.639Z,101236.13
2023-10-10T15:35:16.673Z,101249.47
2023-10-10T15:37:43.780Z,101252.00
2023-10-10T15:40:14.679Z,101264.16
2023-10-10T15:42:41.547Z,101266.47
2023-10-10T15:45:08.402Z,101274.94
2023-10-10T15:47:35.062Z,101278.50
2023-10-10T15:50:01.904Z,101291.13
2023-10-10T15:52:29.224Z,101291.50
2023-10-10T15:54:55.875Z,101270.47
2023-10-10T15:57:27.383Z,101277.06
2023-10-10T15:59:54.104Z,101292.66
2023-10-10T16:02:22.468Z,101275.13
2023-10-10T16:04:49.364Z,101282.06
2023-10-10T16:07:17.710Z,101282.63
2023-10-10T16:09:44.902Z,101291.22
2023-10-10T16:12:13.827Z,101304.22
2023-10-10T16:14:40.837Z,101311.03
2023-10-10T16:17:07.590Z,101326.91
2023-10-10T16:19:35.603Z,101326.22
2023-10-10T16:22:02.608Z,101327.66
2023-10-10T16:24:29.517Z,101326.81
2023-10-10T16:27:03.479Z,101345.25
2023-10-10T16:29:36.241Z,101343.56
2023-10-10T16:32:08.652Z,101347.16
2023-10-10T16:34:36.909Z,101353.28
2023-10-10T16:37:07.305Z,101360.09
2023-10-10T16:39:34.019Z,101375.78
2023-10-10T16:42:00.716Z,101382.91
2023-10-10T16:44:27.559Z,101386.13
2023-10-10T16:46:57.009Z,101400.84
2023-10-10T16:49:25.276Z,101402.03
2023-10-10T16:51:55.083Z,101411.66
2023-10-10T16:54:21.803Z,101417.75
2023-10-10T16:56:48.474Z,101425.88
2023-10-10T16:59:16.129Z,101432.31
2023-10-10T17:01:46.060Z,101441.78
2023-10-10T17:04:12.933Z,101438.53
2023-10-10T17:06:39.720Z,101431.97
2023-10-10T17:09:06.452Z,101448.00
2023-10-10T17:11:33.253Z,101448.66
2023-10-10T17:14:01.202Z,101456.09
2023-10-10T17:16:31.002Z,101466.44
2023-10-10T17:19:14.589Z,101478.25
2023-10-10T17:21:48.672Z,101470.81
2023-10-10T17:24:26.537Z,101475.25
2023-10-10T17:26:55.246Z,101468.63
2023-10-10T17:29:24.866Z,101472.19
2023-10-10T17:31:54.213Z,101471.00
2023-10-10T17:34:23.134Z,101477.25
2023-10-10T17:36:51.519Z,101472.53
2023-10-10T17:39:20.711Z,101463.91
2023-10-10T17:41:49.289Z,101455.09
2023-10-10T17:44:18.174Z,101453.25
2023-10-10T17:46:46.046Z,101459.31
2023-10-10T17:49:13.123Z,101446.16
2023-10-10T17:51:41.189Z,101461.38
2023-10-10T17:54:07.942Z,101457.31
2023-10-10T17:56:34.757Z,101476.72
2023-10-10T17:59:01.808Z,101493.28
2023-10-10T18:01:30.246Z,101518.31
2023-10-10T18:03:57.490Z,101523.22
2023-10-10T18:06:24.998Z,101537.41
2023-10-10T18:08:53.003Z,101537.75
2023-10-10T18:11:19.822Z,101531.66
2023-10-10T18:13:51.263Z,101546.16
2023-10-10T18:16:22.537Z,101572.22
2023-10-10T18:18:49.879Z,101568.50
2023-10-10T18:21:20.260Z,101577.63
2023-10-10T18:23:47.416Z,101573.19
2023-10-10T18:26:17.904Z,101599.22
2023-10-10T18:28:44.701Z,101610.00
2023-10-10T18:31:18.877Z,101612.34
2023-10-10T18:33:45.940Z,101638.34
2023-10-10T18:36:12.850Z,101658.97
2023-10-10T18:38:40.018Z,101672.28
2023-10-10T18:41:06.833Z,101681.75
2023-10-10T18:43:33.513Z,101692.31
2023-10-10T18:46:06.237Z,101711.44
2023-10-10T18:48:38.218Z,101720.75
2023-10-10T18:51:05.417Z,101722.78
2023-10-10T18:53:32.233Z,101736.63
2023-10-10T18:55:59.959Z,101747.31
2023-10-10T18:58:27.393Z,101741.69
2023-10-10T19:00:56.260Z,101731.84
2023-10-10T19:03:23.495Z,101729.78
2023-10-10T19:05:52.894Z,101748.41
2023-10-10T19:08:20.604Z,101756.63
2023-10-10T19:10:51.865Z,101801.31
2023-10-10T19:13:18.849Z,101816.38
2023-10-10T19:15:48.867Z,101830.19
2023-10-10T19:18:17.261Z,101843.63
2023-10-10T19:20:49.869Z,101864.88
2023-10-10T19:23:16.743Z,101855.69
2023-10-10T19:25:49.372Z,101830.91
2023-10-10T19:28:17.349Z,101819.72
2023-10-10T19:30:46.376Z,101829.72
2023-10-10T19:33:15.774Z,101818.19
2023-10-10T19:35:46.095Z,101822.53
2023-10-10T19:38:13.258Z,101823.84
2023-10-10T19:40:44.282Z,101816.81
2023-10-10T19:43:12.083Z,101790.97
2023-10-10T19:45:39.601Z,101803.69
2023-10-10T19:48:07.534Z,101802.47
2023-10-10T19:50:38.457Z,101793.03
2023-10-10T19:53:06.941Z,101790.28
2023-10-10T19:55:35.266Z,101789.25
2023-10-10T19:58:02.407Z,101782.22
2023-10-10T20:00:43.488Z,101780.09
2023-10-10T20:03:14.032Z,101775.84
2023-10-10T20:05:41.533Z,101782.19
2023-10-10T20:08:13.508Z,101768.59
2023-10-10T20:10:40.468Z,101767.53
2023-10-10T20:13:07.334Z,101749.94
2023-10-10T20:15:37.879Z,101739.06
2023-10-10T20:18:16.303Z,101714.06
2023-10-10T20:20:43.516Z,101696.56
2023-10-10T20:23:10.816Z,101697.56
2023-10-10T20:25:41.673Z,101686.94
2023-10-10T20:28:09.290Z,101681.00
2023-10-10T20:30:38.886Z,101676.28
2023-10-10T20:33:06.221Z,101681.09
2023-10-10T20:35:33.662Z,101677.50
2023-10-10T20:38:07.172Z,101688.00
2023-10-10T20:40:34.686Z,101680.13
2023-10-10T20:43:02.289Z,101671.09
2023-10-10T20:45:30.095Z,101679.13
2023-10-10T20:47:57.347Z,101692.63
2023-10-10T20:50:26.063Z,101695.53
2023-10-10T20:52:56.449Z,101700.00
2023-10-10T20:55:26.559Z,101710.19
2023-10-10T20:57:54.125Z,101708.94
2023-10-10T21:00:21.564Z,101699.00
2023-10-10T21:02:49.296Z,101705.41
2023-10-10T21:05:16.641Z,101701.09
2023-10-10T21:07:43.298Z,101704.69
2023-10-10T21:10:10.764Z,101715.34
2023-10-10T21:12:38.436Z,101705.50
2023-10-10T21:15:05.810Z,101725.16
2023-10-10T21:17:34.052Z,101727.00
2023-10-10T21:20:06.237Z,101712.00
2023-10-10T21:22:32.883Z,101700.25
2023-10-10T21:25:01.156Z,101684.41
2023-10-10T21:27:28.959Z,101697.69
2023-10-10T21:29:55.671Z,101683.19
2023-10-10T21:32:22.515Z,101635.53
2023-10-10T21:34:49.195Z,101599.22
2023-10-10T21:37:16.673Z,101591.59
2023-10-10T21:39:43.837Z,101556.72
2023-10-10T21:42:13.270Z,101506.22
2023-10-10T21:44:40.420Z,101436.59
2023-10-10T21:47:07.420Z,101356.06
2023-10-10T21:49:34.247Z,101311.09
2023-10-10T21:52:01.293Z,101244.47
2023-10-10T21:54:28.332Z,101171.56
2023-10-10T21:56:55.617Z,101111.94
2023-10-10T21:59:22.351Z,101049.16
2023-10-10T22:01:54.876Z,101009.69
2023-10-10T22:04:22.110Z,100935.84
2023-10-10T22:06:49.036Z,100862.53
2023-10-10T22:09:19.014Z,100810.53
2023-10-10T22:11:48.624Z,100777.28
2023-10-10T22:14:15.605Z,100728.03
2023-10-10T22:16:44.497Z,100681.28
2023-10-10T22:19:14.750Z,100646.16
2023-10-10T22:21:41.836Z,100601.94
2023-10-10T22:24:11.108Z,100569.13
2023-10-10T22:26:37.808Z,100540.53
2023-10-10T22:29:05.299Z,100527.75
2023-10-10T22:31:32.757Z,100522.22
2023-10-10T22:33:59.909Z,100539.72
2023-10-10T22:36:28.908Z,100545.41
2023-10-10T22:38:55.776Z,100535.34
2023-10-10T22:41:22.567Z,100544.25
2023-10-10T22:43:49.759Z,100528.63
2023-10-10T22:46:16.634Z,100525.59
2023-10-10T22:48:44.265Z,100513.50
2023-10-10T22:51:11.312Z,100498.03
2023-10-10T22:53:37.981Z,100495.34
2023-10-10T22:56:13.770Z,100481.91
2023-10-10T22:58:43.838Z,100472.84
2023-10-10T23:01:16.520Z,100467.47
2023-10-10T23:03:43.612Z,100466.97
2023-10-10T23:06:13.439Z,100444.63
2023-10-10T23:08:40.863Z,100436.56
2023-10-10T23:11:07.822Z,100428.84
2023-10-10T23:13:35.656Z,100406.34
2023-10-10T23:16:02.374Z,100408.34
2023-10-10T23:18:29.038Z,100417.91
2023-10-10T23:20:56.598Z,100439.91
2023-10-10T23:23:23.351Z,100445.94
2023-10-10T23:25:52.302Z,100455.16
2023-10-10T23:28:19.117Z,100480.78
2023-10-10T23:30:45.967Z,100485.00
2023-10-10T23:33:13.954Z,100507.00
2023-10-10T23:35:41.444Z,100512.81
2023-10-10T23:38:09.381Z,100526.38
2023-10-10T23:40:43.286Z,100559.97
2023-10-10T23:43:10.941Z,100566.56
2023-10-10T23:45:44.372Z,100571.63
2023-10-10T23:48:18.379Z,100595.41
2023-10-10T23:50:46.076Z,100612.88
2023-10-10T23:53:16.759Z,100638.34
2023-10-10T23:55:48.183Z,100642.09
2023-10-10T23:58:15.694Z,100633.66
